sensor_id;sensor_type;location;lat;lon;timestamp;P1;durP1;ratioP1;P2;durP2;ratioP2
15929;SDS011;8064;51.142;4.780;2023-03-01T00:02:17;6.83;;;5.10;;
15929;SDS011;8064;51.142;4.780;2023-03-01T00:04:43;7.27;;;4.90;;
15929;SDS011;8064;51.142;4.780;2023-03-01T00:07:08;7.13;;;5.10;;
15929;SDS011;8064;51.142;4.780;2023-03-01T00:09:35;8.23;;;5.27;;
15929;SDS011;8064;51.142;4.780;2023-03-01T00:12:02;7.27;;;4.70;;
15929;SDS011;8064;51.142;4.780;2023-03-01T00:14:28;6.87;;;4.90;;
15929;SDS011;8064;51.142;4.780;2023-03-01T00:16:53;6.43;;;5.20;;
15929;SDS011;8064;51.142;4.780;2023-03-01T00:19:19;7.43;;;5.17;;
15929;SDS011;8064;51.142;4.780;2023-03-01T00:21:47;8.10;;;4.87;;
15929;SDS011;8064;51.142;4.780;2023-03-01T00:24:13;6.83;;;5.10;;
15929;SDS011;8064;51.142;4.780;2023-03-01T00:26:39;9.60;;;5.87;;
15929;SDS011;8064;51.142;4.780;2023-03-01T00:29:05;7.83;;;5.63;;
15929;SDS011;8064;51.142;4.780;2023-03-01T00:31:32;7.27;;;5.13;;
15929;SDS011;8064;51.142;4.780;2023-03-01T00:33:59;7.00;;;5.07;;
15929;SDS011;8064;51.142;4.780;2023-03-01T00:36:28;7.77;;;5.03;;
15929;SDS011;8064;51.142;4.780;2023-03-01T00:38:56;7.53;;;4.93;;
15929;SDS011;8064;51.142;4.780;2023-03-01T00:41:22;7.67;;;5.30;;
15929;SDS011;8064;51.142;4.780;2023-03-01T00:43:49;6.70;;;4.50;;
15929;SDS011;8064;51.142;4.780;2023-03-01T00:46:16;6.80;;;4.90;;
15929;SDS011;8064;51.142;4.780;2023-03-01T00:48:43;6.70;;;4.80;;
15929;SDS011;8064;51.142;4.780;2023-03-01T00:51:11;6.00;;;4.70;;
15929;SDS011;8064;51.142;4.780;2023-03-01T00:53:39;7.67;;;4.70;;
15929;SDS011;8064;51.142;4.780;2023-03-01T00:56:06;6.83;;;4.90;;
15929;SDS011;8064;51.142;4.780;2023-03-01T00:58:33;5.73;;;4.60;;
15929;SDS011;8064;51.142;4.780;2023-03-01T01:00:59;7.53;;;4.90;;
15929;SDS011;8064;51.142;4.780;2023-03-01T01:03:27;7.47;;;4.90;;
15929;SDS011;8064;51.142;4.780;2023-03-01T01:05:53;5.50;;;4.53;;
15929;SDS011;8064;51.142;4.780;2023-03-01T01:08:20;7.03;;;5.23;;
15929;SDS011;8064;51.142;4.780;2023-03-01T01:10:46;6.97;;;4.93;;
15929;SDS011;8064;51.142;4.780;2023-03-01T01:13:12;7.40;;;5.10;;
15929;SDS011;8064;51.142;4.780;2023-03-01T01:15:39;5.53;;;4.40;;
15929;SDS011;8064;51.142;4.780;2023-03-01T01:18:05;8.67;;;5.23;;
15929;SDS011;8064;51.142;4.780;2023-03-01T01:20:31;5.97;;;5.27;;
15929;SDS011;8064;51.142;4.780;2023-03-01T01:22:57;8.47;;;5.30;;
15929;SDS011;8064;51.142;4.780;2023-03-01T01:25:23;6.10;;;5.17;;
15929;SDS011;8064;51.142;4.780;2023-03-01T01:27:50;6.13;;;5.03;;
15929;SDS011;8064;51.142;4.780;2023-03-01T01:30:16;7.20;;;5.63;;
15929;SDS011;8064;51.142;4.780;2023-03-01T01:32:42;6.63;;;4.80;;
15929;SDS011;8064;51.142;4.780;2023-03-01T01:35:08;6.83;;;4.67;;
15929;SDS011;8064;51.142;4.780;2023-03-01T01:37:34;6.90;;;4.80;;
15929;SDS011;8064;51.142;4.780;2023-03-01T01:40:00;5.73;;;4.93;;
15929;SDS011;8064;51.142;4.780;2023-03-01T01:42:29;7.97;;;4.63;;
15929;SDS011;8064;51.142;4.780;2023-03-01T01:47:52;6.63;;;4.87;;
15929;SDS011;8064;51.142;4.780;2023-03-01T01:50:19;6.07;;;4.77;;
15929;SDS011;8064;51.142;4.780;2023-03-01T01:52:46;5.97;;;5.00;;
15929;SDS011;8064;51.142;4.780;2023-03-01T01:55:16;6.17;;;4.43;;
15929;SDS011;8064;51.142;4.780;2023-03-01T01:57:47;7.60;;;5.17;;
15929;SDS011;8064;51.142;4.780;2023-03-01T02:00:18;5.93;;;5.10;;
15929;SDS011;8064;51.142;4.780;2023-03-01T02:02:46;6.03;;;5.03;;
15929;SDS011;8064;51.142;4.780;2023-03-01T02:07:58;6.57;;;4.60;;
15929;SDS011;8064;51.142;4.780;2023-03-01T02:10:24;8.00;;;5.40;;
15929;SDS011;8064;51.142;4.780;2023-03-01T02:12:52;8.13;;;4.93;;
15929;SDS011;8064;51.142;4.780;2023-03-01T02:15:19;7.00;;;5.17;;
15929;SDS011;8064;51.142;4.780;2023-03-01T02:17:45;6.20;;;5.20;;
15929;SDS011;8064;51.142;4.780;2023-03-01T02:20:27;6.70;;;4.67;;
15929;SDS011;8064;51.142;4.780;2023-03-01T02:22:59;6.77;;;4.93;;
15929;SDS011;8064;51.142;4.780;2023-03-01T02:25:39;5.40;;;4.50;;
15929;SDS011;8064;51.142;4.780;2023-03-01T02:28:40;6.33;;;4.50;;
15929;SDS011;8064;51.142;4.780;2023-03-01T02:31:09;8.70;;;4.67;;
15929;SDS011;8064;51.142;4.780;2023-03-01T02:33:55;5.70;;;4.70;;
15929;SDS011;8064;51.142;4.780;2023-03-01T02:36:23;7.90;;;5.37;;
15929;SDS011;8064;51.142;4.780;2023-03-01T02:38:53;6.43;;;5.40;;
15929;SDS011;8064;51.142;4.780;2023-03-01T02:41:23;6.10;;;5.13;;
15929;SDS011;8064;51.142;4.780;2023-03-01T02:43:53;6.83;;;5.03;;
15929;SDS011;8064;51.142;4.780;2023-03-01T02:46:22;8.40;;;4.80;;
15929;SDS011;8064;51.142;4.780;2023-03-01T02:48:50;7.90;;;5.30;;
15929;SDS011;8064;51.142;4.780;2023-03-01T02:51:23;12.73;;;5.43;;
15929;SDS011;8064;51.142;4.780;2023-03-01T02:56:40;8.20;;;4.90;;
15929;SDS011;8064;51.142;4.780;2023-03-01T02:59:07;6.10;;;4.83;;
15929;SDS011;8064;51.142;4.780;2023-03-01T03:01:34;7.53;;;5.50;;
15929;SDS011;8064;51.142;4.780;2023-03-01T03:04:02;6.07;;;5.20;;
15929;SDS011;8064;51.142;4.780;2023-03-01T03:06:29;6.93;;;5.50;;
15929;SDS011;8064;51.142;4.780;2023-03-01T03:08:55;5.60;;;4.87;;
15929;SDS011;8064;51.142;4.780;2023-03-01T03:11:21;7.90;;;4.83;;
15929;SDS011;8064;51.142;4.780;2023-03-01T03:13:46;7.47;;;5.40;;
15929;SDS011;8064;51.142;4.780;2023-03-01T03:16:13;6.80;;;5.07;;
15929;SDS011;8064;51.142;4.780;2023-03-01T03:18:39;6.50;;;5.07;;
15929;SDS011;8064;51.142;4.780;2023-03-01T03:23:46;7.97;;;5.17;;
15929;SDS011;8064;51.142;4.780;2023-03-01T03:26:12;7.90;;;5.40;;
15929;SDS011;8064;51.142;4.780;2023-03-01T03:28:40;7.67;;;4.70;;
15929;SDS011;8064;51.142;4.780;2023-03-01T03:31:07;6.80;;;4.93;;
15929;SDS011;8064;51.142;4.780;2023-03-01T03:33:33;5.70;;;5.00;;
15929;SDS011;8064;51.142;4.780;2023-03-01T03:35:59;7.70;;;5.03;;
15929;SDS011;8064;51.142;4.780;2023-03-01T03:38:24;7.20;;;5.20;;
15929;SDS011;8064;51.142;4.780;2023-03-01T03:40:52;6.83;;;5.30;;
15929;SDS011;8064;51.142;4.780;2023-03-01T03:43:27;6.67;;;4.97;;
15929;SDS011;8064;51.142;4.780;2023-03-01T03:45:53;6.70;;;5.13;;
15929;SDS011;8064;51.142;4.780;2023-03-01T03:48:19;5.83;;;4.50;;
15929;SDS011;8064;51.142;4.780;2023-03-01T03:50:47;8.10;;;5.00;;
15929;SDS011;8064;51.142;4.780;2023-03-01T03:53:15;7.40;;;5.00;;
15929;SDS011;8064;51.142;4.780;2023-03-01T03:55:41;13.10;;;4.87;;
15929;SDS011;8064;51.142;4.780;2023-03-01T03:58:09;7.53;;;5.13;;
15929;SDS011;8064;51.142;4.780;2023-03-01T04:00:36;5.63;;;4.97;;
15929;SDS011;8064;51.142;4.780;2023-03-01T04:03:04;7.07;;;4.50;;
15929;SDS011;8064;51.142;4.780;2023-03-01T04:05:30;6.40;;;4.63;;
15929;SDS011;8064;51.142;4.780;2023-03-01T04:07:57;6.67;;;4.53;;
15929;SDS011;8064;51.142;4.780;2023-03-01T04:10:35;7.20;;;4.97;;
15929;SDS011;8064;51.142;4.780;2023-03-01T04:13:03;7.10;;;5.07;;
15929;SDS011;8064;51.142;4.780;2023-03-01T04:15:32;6.17;;;4.70;;
15929;SDS011;8064;51.142;4.780;2023-03-01T04:17:58;6.93;;;4.87;;
15929;SDS011;8064;51.142;4.780;2023-03-01T04:20:26;5.70;;;4.37;;
15929;SDS011;8064;51.142;4.780;2023-03-01T04:23:07;12.57;;;4.80;;
15929;SDS011;8064;51.142;4.780;2023-03-01T04:25:39;8.00;;;4.93;;
15929;SDS011;8064;51.142;4.780;2023-03-01T04:28:10;7.17;;;4.97;;
15929;SDS011;8064;51.142;4.780;2023-03-01T04:30:36;9.43;;;5.00;;
15929;SDS011;8064;51.142;4.780;2023-03-01T04:33:04;8.00;;;5.17;;
15929;SDS011;8064;51.142;4.780;2023-03-01T04:35:31;6.03;;;4.60;;
15929;SDS011;8064;51.142;4.780;2023-03-01T04:37:57;7.13;;;4.70;;
15929;SDS011;8064;51.142;4.780;2023-03-01T04:40:24;8.27;;;4.90;;
15929;SDS011;8064;51.142;4.780;2023-03-01T04:42:50;8.03;;;5.17;;
15929;SDS011;8064;51.142;4.780;2023-03-01T04:45:16;7.90;;;4.97;;
15929;SDS011;8064;51.142;4.780;2023-03-01T04:47:42;6.57;;;4.80;;
15929;SDS011;8064;51.142;4.780;2023-03-01T04:50:10;5.83;;;4.73;;
15929;SDS011;8064;51.142;4.780;2023-03-01T04:52:37;6.43;;;4.90;;
15929;SDS011;8064;51.142;4.780;2023-03-01T04:55:03;6.10;;;4.80;;
15929;SDS011;8064;51.142;4.780;2023-03-01T04:57:30;6.57;;;4.70;;
15929;SDS011;8064;51.142;4.780;2023-03-01T04:59:56;6.00;;;5.17;;
15929;SDS011;8064;51.142;4.780;2023-03-01T05:02:22;8.20;;;4.97;;
15929;SDS011;8064;51.142;4.780;2023-03-01T05:04:48;7.70;;;5.50;;
15929;SDS011;8064;51.142;4.780;2023-03-01T05:07:14;6.37;;;4.60;;
15929;SDS011;8064;51.142;4.780;2023-03-01T05:09:45;7.17;;;4.50;;
15929;SDS011;8064;51.142;4.780;2023-03-01T05:12:12;5.70;;;4.43;;
15929;SDS011;8064;51.142;4.780;2023-03-01T05:14:38;7.13;;;4.90;;
15929;SDS011;8064;51.142;4.780;2023-03-01T05:17:04;7.57;;;5.07;;
15929;SDS011;8064;51.142;4.780;2023-03-01T05:19:30;7.40;;;5.13;;
15929;SDS011;8064;51.142;4.780;2023-03-01T05:21:57;6.53;;;4.97;;
15929;SDS011;8064;51.142;4.780;2023-03-01T05:24:34;6.77;;;4.53;;
15929;SDS011;8064;51.142;4.780;2023-03-01T05:27:01;6.60;;;4.40;;
15929;SDS011;8064;51.142;4.780;2023-03-01T05:29:28;5.20;;;4.50;;
15929;SDS011;8064;51.142;4.780;2023-03-01T05:31:56;6.70;;;4.53;;
15929;SDS011;8064;51.142;4.780;2023-03-01T05:34:25;10.13;;;4.87;;
15929;SDS011;8064;51.142;4.780;2023-03-01T05:36:54;7.30;;;4.80;;
15929;SDS011;8064;51.142;4.780;2023-03-01T05:39:20;6.47;;;4.57;;
15929;SDS011;8064;51.142;4.780;2023-03-01T05:41:47;8.53;;;5.07;;
15929;SDS011;8064;51.142;4.780;2023-03-01T05:44:16;6.70;;;5.00;;
15929;SDS011;8064;51.142;4.780;2023-03-01T05:46:42;7.13;;;4.90;;
15929;SDS011;8064;51.142;4.780;2023-03-01T05:49:08;7.70;;;4.90;;
15929;SDS011;8064;51.142;4.780;2023-03-01T05:51:34;7.73;;;5.17;;
15929;SDS011;8064;51.142;4.780;2023-03-01T05:53:59;7.63;;;4.60;;
15929;SDS011;8064;51.142;4.780;2023-03-01T05:56:25;6.97;;;4.47;;
15929;SDS011;8064;51.142;4.780;2023-03-01T05:58:51;7.73;;;5.23;;
15929;SDS011;8064;51.142;4.780;2023-03-01T06:01:17;5.73;;;4.87;;
15929;SDS011;8064;51.142;4.780;2023-03-01T06:03:42;5.87;;;4.40;;
15929;SDS011;8064;51.142;4.780;2023-03-01T06:06:08;6.73;;;4.80;;
15929;SDS011;8064;51.142;4.780;2023-03-01T06:08:34;7.30;;;5.00;;
15929;SDS011;8064;51.142;4.780;2023-03-01T06:11:01;5.07;;;4.53;;
15929;SDS011;8064;51.142;4.780;2023-03-01T06:13:30;7.63;;;4.67;;
15929;SDS011;8064;51.142;4.780;2023-03-01T06:15:56;6.23;;;4.67;;
15929;SDS011;8064;51.142;4.780;2023-03-01T06:18:21;8.60;;;4.73;;
15929;SDS011;8064;51.142;4.780;2023-03-01T06:20:54;6.13;;;4.60;;
15929;SDS011;8064;51.142;4.780;2023-03-01T06:23:21;8.30;;;4.60;;
15929;SDS011;8064;51.142;4.780;2023-03-01T06:25:47;9.20;;;4.40;;
15929;SDS011;8064;51.142;4.780;2023-03-01T06:28:13;6.90;;;4.93;;
15929;SDS011;8064;51.142;4.780;2023-03-01T06:30:39;8.57;;;5.00;;
15929;SDS011;8064;51.142;4.780;2023-03-01T06:33:04;5.40;;;4.17;;
15929;SDS011;8064;51.142;4.780;2023-03-01T06:35:31;7.40;;;5.47;;
15929;SDS011;8064;51.142;4.780;2023-03-01T06:37:57;4.97;;;4.47;;
15929;SDS011;8064;51.142;4.780;2023-03-01T06:40:24;5.80;;;5.20;;
15929;SDS011;8064;51.142;4.780;2023-03-01T06:42:50;5.37;;;4.50;;
15929;SDS011;8064;51.142;4.780;2023-03-01T06:45:17;8.57;;;5.00;;
15929;SDS011;8064;51.142;4.780;2023-03-01T06:47:44;5.63;;;4.60;;
15929;SDS011;8064;51.142;4.780;2023-03-01T06:50:10;7.23;;;5.40;;
15929;SDS011;8064;51.142;4.780;2023-03-01T06:52:37;9.10;;;4.80;;
15929;SDS011;8064;51.142;4.780;2023-03-01T06:55:03;6.63;;;4.83;;
15929;SDS011;8064;51.142;4.780;2023-03-01T06:57:29;9.97;;;5.07;;
15929;SDS011;8064;51.142;4.780;2023-03-01T06:59:55;6.90;;;4.93;;
15929;SDS011;8064;51.142;4.780;2023-03-01T07:02:21;5.93;;;4.90;;
15929;SDS011;8064;51.142;4.780;2023-03-01T07:04:48;8.50;;;5.00;;
15929;SDS011;8064;51.142;4.780;2023-03-01T07:07:15;9.97;;;5.33;;
15929;SDS011;8064;51.142;4.780;2023-03-01T07:09:43;6.50;;;4.77;;
15929;SDS011;8064;51.142;4.780;2023-03-01T07:12:09;5.83;;;5.03;;
15929;SDS011;8064;51.142;4.780;2023-03-01T07:14:35;11.27;;;5.13;;
15929;SDS011;8064;51.142;4.780;2023-03-01T07:17:01;8.90;;;5.20;;
15929;SDS011;8064;51.142;4.780;2023-03-01T07:19:27;7.67;;;5.30;;
15929;SDS011;8064;51.142;4.780;2023-03-01T07:21:53;8.33;;;5.27;;
15929;SDS011;8064;51.142;4.780;2023-03-01T07:24:21;7.13;;;5.03;;
15929;SDS011;8064;51.142;4.780;2023-03-01T07:26:49;7.63;;;5.50;;
15929;SDS011;8064;51.142;4.780;2023-03-01T07:29:15;13.30;;;5.97;;
15929;SDS011;8064;51.142;4.780;2023-03-01T07:31:41;7.63;;;5.20;;
15929;SDS011;8064;51.142;4.780;2023-03-01T07:34:07;7.77;;;5.30;;
15929;SDS011;8064;51.142;4.780;2023-03-01T07:36:33;10.17;;;5.17;;
15929;SDS011;8064;51.142;4.780;2023-03-01T07:38:58;7.77;;;5.93;;
15929;SDS011;8064;51.142;4.780;2023-03-01T07:41:27;9.40;;;6.23;;
15929;SDS011;8064;51.142;4.780;2023-03-01T07:43:53;5.93;;;5.00;;
15929;SDS011;8064;51.142;4.780;2023-03-01T07:46:18;10.13;;;6.20;;
15929;SDS011;8064;51.142;4.780;2023-03-01T07:48:45;9.53;;;5.70;;
15929;SDS011;8064;51.142;4.780;2023-03-01T07:51:11;7.90;;;5.87;;
15929;SDS011;8064;51.142;4.780;2023-03-01T07:53:37;7.83;;;5.60;;
15929;SDS011;8064;51.142;4.780;2023-03-01T07:56:05;8.53;;;5.67;;
15929;SDS011;8064;51.142;4.780;2023-03-01T07:58:34;9.00;;;6.13;;
15929;SDS011;8064;51.142;4.780;2023-03-01T08:01:01;8.03;;;5.40;;
15929;SDS011;8064;51.142;4.780;2023-03-01T08:03:28;9.00;;;6.13;;
15929;SDS011;8064;51.142;4.780;2023-03-01T08:05:54;8.40;;;6.27;;
15929;SDS011;8064;51.142;4.780;2023-03-01T08:08:20;6.40;;;4.97;;
15929;SDS011;8064;51.142;4.780;2023-03-01T08:10:46;7.33;;;5.53;;
15929;SDS011;8064;51.142;4.780;2023-03-01T08:13:12;8.77;;;6.77;;
15929;SDS011;8064;51.142;4.780;2023-03-01T08:15:37;8.43;;;5.30;;
15929;SDS011;8064;51.142;4.780;2023-03-01T08:18:03;7.03;;;4.80;;
15929;SDS011;8064;51.142;4.780;2023-03-01T08:20:29;8.90;;;5.43;;
15929;SDS011;8064;51.142;4.780;2023-03-01T08:22:55;8.17;;;5.40;;
15929;SDS011;8064;51.142;4.780;2023-03-01T08:25:22;6.77;;;5.50;;
15929;SDS011;8064;51.142;4.780;2023-03-01T08:27:48;8.63;;;5.70;;
15929;SDS011;8064;51.142;4.780;2023-03-01T08:30:14;7.83;;;5.83;;
15929;SDS011;8064;51.142;4.780;2023-03-01T08:32:40;8.97;;;5.50;;
15929;SDS011;8064;51.142;4.780;2023-03-01T08:35:06;9.77;;;5.80;;
15929;SDS011;8064;51.142;4.780;2023-03-01T08:37:34;9.07;;;5.60;;
15929;SDS011;8064;51.142;4.780;2023-03-01T08:40:00;8.33;;;5.40;;
15929;SDS011;8064;51.142;4.780;2023-03-01T08:42:28;8.13;;;6.37;;
15929;SDS011;8064;51.142;4.780;2023-03-01T08:44:54;8.97;;;6.00;;
15929;SDS011;8064;51.142;4.780;2023-03-01T08:47:21;6.93;;;5.37;;
15929;SDS011;8064;51.142;4.780;2023-03-01T08:49:48;8.90;;;5.33;;
15929;SDS011;8064;51.142;4.780;2023-03-01T08:52:15;6.53;;;5.53;;
15929;SDS011;8064;51.142;4.780;2023-03-01T08:54:41;7.20;;;5.60;;
15929;SDS011;8064;51.142;4.780;2023-03-01T08:57:07;8.10;;;6.00;;
15929;SDS011;8064;51.142;4.780;2023-03-01T08:59:34;7.43;;;5.73;;
15929;SDS011;8064;51.142;4.780;2023-03-01T09:02:02;7.20;;;5.80;;
15929;SDS011;8064;51.142;4.780;2023-03-01T09:04:29;8.47;;;5.70;;
15929;SDS011;8064;51.142;4.780;2023-03-01T09:06:56;8.87;;;5.37;;
15929;SDS011;8064;51.142;4.780;2023-03-01T09:09:21;6.53;;;5.20;;
15929;SDS011;8064;51.142;4.780;2023-03-01T09:11:47;8.83;;;5.90;;
15929;SDS011;8064;51.142;4.780;2023-03-01T09:14:15;7.83;;;5.47;;
15929;SDS011;8064;51.142;4.780;2023-03-01T09:16:41;7.37;;;5.93;;
15929;SDS011;8064;51.142;4.780;2023-03-01T09:19:08;7.73;;;5.93;;
15929;SDS011;8064;51.142;4.780;2023-03-01T09:21:34;7.30;;;5.23;;
15929;SDS011;8064;51.142;4.780;2023-03-01T09:24:00;7.50;;;5.10;;
15929;SDS011;8064;51.142;4.780;2023-03-01T09:26:26;7.87;;;5.57;;
15929;SDS011;8064;51.142;4.780;2023-03-01T09:28:53;8.33;;;5.03;;
15929;SDS011;8064;51.142;4.780;2023-03-01T09:31:20;6.30;;;4.93;;
15929;SDS011;8064;51.142;4.780;2023-03-01T09:33:48;6.17;;;5.30;;
15929;SDS011;8064;51.142;4.780;2023-03-01T09:36:16;8.67;;;5.33;;
15929;SDS011;8064;51.142;4.780;2023-03-01T09:38:43;6.60;;;5.30;;
15929;SDS011;8064;51.142;4.780;2023-03-01T09:41:18;6.80;;;5.53;;
15929;SDS011;8064;51.142;4.780;2023-03-01T09:44:01;9.00;;;5.47;;
15929;SDS011;8064;51.142;4.780;2023-03-01T09:46:35;9.03;;;5.60;;
15929;SDS011;8064;51.142;4.780;2023-03-01T09:49:10;5.53;;;4.93;;
15929;SDS011;8064;51.142;4.780;2023-03-01T09:51:42;6.63;;;5.23;;
15929;SDS011;8064;51.142;4.780;2023-03-01T09:54:18;7.73;;;5.53;;
15929;SDS011;8064;51.142;4.780;2023-03-01T09:56:45;6.37;;;5.53;;
15929;SDS011;8064;51.142;4.780;2023-03-01T09:59:21;6.83;;;5.63;;
15929;SDS011;8064;51.142;4.780;2023-03-01T10:13:04;7.73;;;5.90;;
15929;SDS011;8064;51.142;4.780;2023-03-01T10:15:43;6.80;;;6.10;;
15929;SDS011;8064;51.142;4.780;2023-03-01T10:18:15;6.85;;;6.10;;
15929;SDS011;8064;51.142;4.780;2023-03-01T10:20:48;6.25;;;5.70;;
15929;SDS011;8064;51.142;4.780;2023-03-01T10:23:19;6.53;;;5.93;;
15929;SDS011;8064;51.142;4.780;2023-03-01T10:36:56;6.45;;;5.85;;
15929;SDS011;8064;51.142;4.780;2023-03-01T10:42:33;6.85;;;6.15;;
15929;SDS011;8064;51.142;4.780;2023-03-01T10:48:06;6.45;;;5.85;;
15929;SDS011;8064;51.142;4.780;2023-03-01T10:56:17;7.95;;;5.65;;
15929;SDS011;8064;51.142;4.780;2023-03-01T11:01:44;7.45;;;6.55;;
15929;SDS011;8064;51.142;4.780;2023-03-01T11:04:12;6.78;;;6.18;;
15929;SDS011;8064;51.142;4.780;2023-03-01T11:06:39;7.15;;;6.40;;
15929;SDS011;8064;51.142;4.780;2023-03-01T11:09:14;6.53;;;5.93;;
15929;SDS011;8064;51.142;4.780;2023-03-01T11:11:42;6.50;;;6.00;;
15929;SDS011;8064;51.142;4.780;2023-03-01T11:17:03;7.05;;;6.45;;
15929;SDS011;8064;51.142;4.780;2023-03-01T11:19:37;7.18;;;6.55;;
15929;SDS011;8064;51.142;4.780;2023-03-01T11:24:48;8.15;;;6.80;;
15929;SDS011;8064;51.142;4.780;2023-03-01T11:27:18;6.50;;;5.90;;
15929;SDS011;8064;51.142;4.780;2023-03-01T11:30:29;6.40;;;5.80;;
15929;SDS011;8064;51.142;4.780;2023-03-01T11:38:39;7.82;;;6.13;;
15929;SDS011;8064;51.142;4.780;2023-03-01T11:41:07;7.55;;;6.15;;
15929;SDS011;8064;51.142;4.780;2023-03-01T11:43:51;6.60;;;6.00;;
15929;SDS011;8064;51.142;4.780;2023-03-01T11:46:27;7.22;;;6.13;;
15929;SDS011;8064;51.142;4.780;2023-03-01T11:55:05;6.88;;;6.20;;
15929;SDS011;8064;51.142;4.780;2023-03-01T12:00:59;7.07;;;5.70;;
15929;SDS011;8064;51.142;4.780;2023-03-01T12:03:47;8.03;;;5.93;;
15929;SDS011;8064;51.142;4.780;2023-03-01T12:09:44;6.63;;;6.03;;
15929;SDS011;8064;51.142;4.780;2023-03-01T12:21:12;7.57;;;5.80;;
15929;SDS011;8064;51.142;4.780;2023-03-01T12:30:16;7.77;;;6.10;;
15929;SDS011;8064;51.142;4.780;2023-03-01T12:35:48;7.73;;;6.47;;
15929;SDS011;8064;51.142;4.780;2023-03-01T12:41:40;7.27;;;6.07;;
15929;SDS011;8064;51.142;4.780;2023-03-01T12:44:12;7.10;;;6.40;;
15929;SDS011;8064;51.142;4.780;2023-03-01T12:47:04;7.03;;;6.20;;
15929;SDS011;8064;51.142;4.780;2023-03-01T12:49:44;7.63;;;6.20;;
15929;SDS011;8064;51.142;4.780;2023-03-01T12:52:19;7.27;;;6.23;;
15929;SDS011;8064;51.142;4.780;2023-03-01T12:54:55;7.27;;;6.50;;
15929;SDS011;8064;51.142;4.780;2023-03-01T13:03:18;7.13;;;6.30;;
15929;SDS011;8064;51.142;4.780;2023-03-01T13:06:06;9.37;;;6.87;;
15929;SDS011;8064;51.142;4.780;2023-03-01T13:11:34;7.93;;;6.20;;
15929;SDS011;8064;51.142;4.780;2023-03-01T13:16:45;7.27;;;6.57;;
15929;SDS011;8064;51.142;4.780;2023-03-01T13:22:01;7.50;;;6.17;;
15929;SDS011;8064;51.142;4.780;2023-03-01T13:27:48;7.27;;;5.27;;
15929;SDS011;8064;51.142;4.780;2023-03-01T13:36:03;7.00;;;5.70;;
15929;SDS011;8064;51.142;4.780;2023-03-01T13:41:17;7.33;;;5.73;;
15929;SDS011;8064;51.142;4.780;2023-03-01T13:44:25;6.33;;;5.73;;
15929;SDS011;8064;51.142;4.780;2023-03-01T13:52:37;6.77;;;6.03;;
15929;SDS011;8064;51.142;4.780;2023-03-01T14:00:38;7.77;;;5.97;;
15929;SDS011;8064;51.142;4.780;2023-03-01T14:06:02;8.13;;;6.40;;
15929;SDS011;8064;51.142;4.780;2023-03-01T14:08:33;6.90;;;5.90;;
15929;SDS011;8064;51.142;4.780;2023-03-01T14:16:42;8.03;;;6.47;;
15929;SDS011;8064;51.142;4.780;2023-03-01T14:19:29;7.30;;;6.37;;
15929;SDS011;8064;51.142;4.780;2023-03-01T14:24:55;8.53;;;6.27;;
15929;SDS011;8064;51.142;4.780;2023-03-01T14:27:24;7.10;;;6.30;;
15929;SDS011;8064;51.142;4.780;2023-03-01T14:29:54;8.10;;;6.20;;
15929;SDS011;8064;51.142;4.780;2023-03-01T14:32:25;7.40;;;6.03;;
15929;SDS011;8064;51.142;4.780;2023-03-01T14:34:53;7.07;;;5.83;;
15929;SDS011;8064;51.142;4.780;2023-03-01T14:37:22;13.23;;;5.87;;
15929;SDS011;8064;51.142;4.780;2023-03-01T14:39:53;6.40;;;5.73;;
15929;SDS011;8064;51.142;4.780;2023-03-01T14:42:20;7.03;;;5.50;;
15929;SDS011;8064;51.142;4.780;2023-03-01T14:44:49;6.70;;;5.23;;
15929;SDS011;8064;51.142;4.780;2023-03-01T14:52:34;6.37;;;5.00;;
15929;SDS011;8064;51.142;4.780;2023-03-01T14:55:04;7.47;;;5.17;;
15929;SDS011;8064;51.142;4.780;2023-03-01T14:57:42;6.43;;;4.93;;
15929;SDS011;8064;51.142;4.780;2023-03-01T15:00:10;6.13;;;4.80;;
15929;SDS011;8064;51.142;4.780;2023-03-01T15:02:42;5.53;;;4.60;;
15929;SDS011;8064;51.142;4.780;2023-03-01T15:05:09;7.53;;;5.00;;
15929;SDS011;8064;51.142;4.780;2023-03-01T15:07:37;7.50;;;4.73;;
15929;SDS011;8064;51.142;4.780;2023-03-01T15:10:06;7.27;;;4.80;;
15929;SDS011;8064;51.142;4.780;2023-03-01T15:12:40;5.20;;;4.47;;
15929;SDS011;8064;51.142;4.780;2023-03-01T15:20:52;6.15;;;4.90;;
15929;SDS011;8064;51.142;4.780;2023-03-01T15:26:01;5.20;;;4.70;;
15929;SDS011;8064;51.142;4.780;2023-03-01T15:28:30;7.20;;;4.40;;
15929;SDS011;8064;51.142;4.780;2023-03-01T15:31:00;6.30;;;5.10;;
15929;SDS011;8064;51.142;4.780;2023-03-01T15:33:32;7.90;;;4.50;;
15929;SDS011;8064;51.142;4.780;2023-03-01T15:36:00;5.67;;;4.80;;
15929;SDS011;8064;51.142;4.780;2023-03-01T15:38:30;6.23;;;4.70;;
15929;SDS011;8064;51.142;4.780;2023-03-01T15:40:58;6.50;;;4.47;;
15929;SDS011;8064;51.142;4.780;2023-03-01T15:43:38;11.10;;;4.83;;
15929;SDS011;8064;51.142;4.780;2023-03-01T15:46:05;9.50;;;4.93;;
15929;SDS011;8064;51.142;4.780;2023-03-01T15:48:49;6.17;;;4.40;;
15929;SDS011;8064;51.142;4.780;2023-03-01T15:51:19;9.20;;;4.30;;
15929;SDS011;8064;51.142;4.780;2023-03-01T15:53:52;6.23;;;4.67;;
15929;SDS011;8064;51.142;4.780;2023-03-01T15:56:18;9.33;;;4.83;;
15929;SDS011;8064;51.142;4.780;2023-03-01T15:58:44;6.73;;;4.67;;
15929;SDS011;8064;51.142;4.780;2023-03-01T16:01:12;5.77;;;4.63;;
15929;SDS011;8064;51.142;4.780;2023-03-01T16:03:39;4.67;;;4.10;;
15929;SDS011;8064;51.142;4.780;2023-03-01T16:06:05;4.97;;;4.17;;
15929;SDS011;8064;51.142;4.780;2023-03-01T16:08:33;6.00;;;4.60;;
15929;SDS011;8064;51.142;4.780;2023-03-01T16:10:59;4.93;;;4.43;;
15929;SDS011;8064;51.142;4.780;2023-03-01T16:13:28;6.67;;;4.73;;
15929;SDS011;8064;51.142;4.780;2023-03-01T16:15:54;6.43;;;4.40;;
15929;SDS011;8064;51.142;4.780;2023-03-01T16:18:19;7.97;;;4.97;;
15929;SDS011;8064;51.142;4.780;2023-03-01T16:20:46;6.93;;;4.63;;
15929;SDS011;8064;51.142;4.780;2023-03-01T16:23:13;6.67;;;4.17;;
15929;SDS011;8064;51.142;4.780;2023-03-01T16:25:40;5.87;;;4.77;;
15929;SDS011;8064;51.142;4.780;2023-03-01T16:28:06;6.17;;;4.57;;
15929;SDS011;8064;51.142;4.780;2023-03-01T16:30:45;5.30;;;4.13;;
15929;SDS011;8064;51.142;4.780;2023-03-01T16:33:13;5.80;;;4.60;;
15929;SDS011;8064;51.142;4.780;2023-03-01T16:35:39;6.73;;;4.80;;
15929;SDS011;8064;51.142;4.780;2023-03-01T16:38:05;5.63;;;4.50;;
15929;SDS011;8064;51.142;4.780;2023-03-01T16:40:31;5.13;;;4.60;;
15929;SDS011;8064;51.142;4.780;2023-03-01T16:42:57;5.60;;;4.43;;
15929;SDS011;8064;51.142;4.780;2023-03-01T16:45:26;5.47;;;4.80;;
15929;SDS011;8064;51.142;4.780;2023-03-01T16:47:53;6.07;;;4.27;;
15929;SDS011;8064;51.142;4.780;2023-03-01T16:50:19;6.67;;;4.60;;
15929;SDS011;8064;51.142;4.780;2023-03-01T16:52:45;4.90;;;4.40;;
15929;SDS011;8064;51.142;4.780;2023-03-01T16:55:11;6.17;;;4.83;;
15929;SDS011;8064;51.142;4.780;2023-03-01T16:57:37;4.93;;;4.30;;
15929;SDS011;8064;51.142;4.780;2023-03-01T17:00:04;5.87;;;4.83;;
15929;SDS011;8064;51.142;4.780;2023-03-01T17:02:32;6.07;;;4.70;;
15929;SDS011;8064;51.142;4.780;2023-03-01T17:04:59;5.23;;;4.73;;
15929;SDS011;8064;51.142;4.780;2023-03-01T17:07:25;10.63;;;4.93;;
15929;SDS011;8064;51.142;4.780;2023-03-01T17:09:51;6.73;;;4.87;;
15929;SDS011;8064;51.142;4.780;2023-03-01T17:12:16;5.73;;;4.67;;
15929;SDS011;8064;51.142;4.780;2023-03-01T17:14:42;10.83;;;5.73;;
15929;SDS011;8064;51.142;4.780;2023-03-01T17:17:09;7.80;;;5.70;;
15929;SDS011;8064;51.142;4.780;2023-03-01T17:19:35;7.90;;;5.10;;
15929;SDS011;8064;51.142;4.780;2023-03-01T17:22:06;8.67;;;5.60;;
15929;SDS011;8064;51.142;4.780;2023-03-01T17:24:33;6.70;;;5.10;;
15929;SDS011;8064;51.142;4.780;2023-03-01T17:27:00;7.07;;;4.93;;
15929;SDS011;8064;51.142;4.780;2023-03-01T17:29:26;8.47;;;5.50;;
15929;SDS011;8064;51.142;4.780;2023-03-01T17:31:52;8.10;;;5.47;;
15929;SDS011;8064;51.142;4.780;2023-03-01T17:34:20;6.77;;;5.43;;
15929;SDS011;8064;51.142;4.780;2023-03-01T17:36:46;6.43;;;5.23;;
15929;SDS011;8064;51.142;4.780;2023-03-01T17:39:14;6.60;;;5.27;;
15929;SDS011;8064;51.142;4.780;2023-03-01T17:41:41;6.60;;;5.30;;
15929;SDS011;8064;51.142;4.780;2023-03-01T17:44:07;8.10;;;5.53;;
15929;SDS011;8064;51.142;4.780;2023-03-01T17:46:33;6.67;;;5.30;;